createdAt,value
2024-02-22T00:00:03.594Z,7.07
2024-02-22T00:02:40.972Z,6.97
2024-02-22T00:05:09.649Z,8.50
2024-02-22T00:07:37.687Z,6.63
2024-02-22T00:10:09.722Z,6.22
2024-02-22T00:12:39.895Z,5.95
2024-02-22T00:15:11.931Z,7.53
2024-02-22T00:17:41.386Z,7.25
2024-02-22T00:20:12.090Z,7.50
2024-02-22T00:22:41.094Z,7.43
2024-02-22T00:25:11.289Z,7.18
2024-02-22T00:27:39.879Z,7.78
2024-02-22T00:30:10.581Z,7.00
2024-02-22T00:35:07.502Z,5.90
2024-02-22T00:37:39.198Z,3.97
2024-02-22T00:40:10.283Z,8.43
2024-02-22T00:42:39.934Z,6.75
2024-02-22T00:45:10.672Z,5.00
2024-02-22T00:50:07.444Z,5.90
2024-02-22T00:52:36.309Z,5.70
2024-02-22T00:55:04.625Z,5.78
2024-02-22T00:57:32.481Z,5.65
2024-02-22T01:00:03.225Z,7.85
2024-02-22T01:04:58.541Z,5.03
2024-02-22T01:07:26.403Z,5.88
2024-02-22T01:09:54.326Z,8.23
2024-02-22T01:12:23.598Z,6.80
2024-02-22T01:14:51.563Z,5.75
2024-02-22T01:17:20.751Z,5.40
2024-02-22T01:19:49.093Z,4.97
2024-02-22T01:22:16.953Z,5.90
2024-02-22T01:24:45.166Z,6.55
2024-02-22T01:27:14.069Z,6.97
2024-02-22T01:29:43.037Z,5.70
2024-02-22T01:32:11.140Z,5.63
2024-02-22T01:34:42.700Z,4.15
2024-02-22T01:37:10.415Z,4.68
2024-02-22T01:39:38.648Z,7.10
2024-02-22T01:42:06.727Z,6.28
2024-02-22T01:44:34.461Z,7.88
2024-02-22T01:47:02.847Z,4.30
2024-02-22T01:49:30.852Z,4.55
2024-02-22T01:52:05.691Z,6.05
2024-02-22T01:54:33.903Z,4.63
2024-02-22T01:57:02.126Z,5.28
2024-02-22T01:59:29.939Z,6.82
2024-02-22T02:02:00.161Z,5.28
2024-02-22T02:04:29.677Z,5.32
2024-02-22T02:07:00.565Z,4.70
2024-02-22T02:09:30.206Z,4.53
2024-02-22T02:11:58.311Z,5.13
2024-02-22T02:14:27.653Z,5.38
2024-02-22T02:16:55.562Z,4.82
2024-02-22T02:19:27.766Z,6.32
2024-02-22T02:22:09.821Z,5.22
2024-02-22T02:24:44.480Z,5.57
2024-02-22T02:27:15.893Z,5.00
2024-02-22T02:29:45.819Z,6.78
2024-02-22T02:34:42.785Z,6.95
2024-02-22T02:37:11.896Z,6.80
2024-02-22T02:39:40.187Z,9.20
2024-02-22T02:42:08.448Z,8.07
2024-02-22T02:44:37.578Z,9.45
2024-02-22T02:47:10.265Z,10.25
2024-02-22T02:49:38.378Z,9.52
2024-02-22T02:52:06.385Z,10.30
2024-02-22T02:54:35.004Z,8.85
2024-02-22T02:57:03.064Z,8.93
2024-02-22T02:59:31.148Z,9.85
2024-02-22T03:02:00.937Z,9.73
2024-02-22T03:04:29.460Z,8.18
2024-02-22T03:06:57.240Z,10.50
2024-02-22T03:09:27.308Z,8.30
2024-02-22T03:11:55.643Z,7.47
2024-02-22T03:14:23.420Z,6.97
2024-02-22T03:16:53.457Z,8.05
2024-02-22T03:19:22.774Z,7.95
2024-02-22T03:21:50.580Z,8.10
2024-02-22T03:24:18.272Z,8.77
2024-02-22T03:26:47.631Z,8.70
2024-02-22T03:29:15.694Z,8.43
2024-02-22T03:31:44.463Z,11.98
2024-02-22T03:34:13.396Z,8.65
2024-02-22T03:36:43.114Z,8.73
2024-02-22T03:39:13.689Z,9.63
2024-02-22T03:41:41.518Z,8.30
2024-02-22T03:44:09.276Z,9.60
2024-02-22T03:46:39.130Z,12.52
2024-02-22T03:49:08.140Z,11.25
2024-02-22T03:51:36.596Z,9.93
2024-02-22T03:54:06.020Z,10.63
2024-02-22T03:56:34.715Z,10.63
2024-02-22T03:59:02.563Z,11.82
2024-02-22T04:01:35.874Z,10.80
2024-02-22T04:04:05.080Z,10.93
2024-02-22T04:06:35.101Z,10.80
2024-02-22T04:09:07.519Z,13.55
2024-02-22T04:11:35.735Z,12.63
2024-02-22T04:14:06.009Z,13.38
2024-02-22T04:16:35.008Z,13.82
2024-02-22T04:19:03.620Z,12.85
2024-02-22T04:21:31.591Z,13.65
2024-02-22T04:23:59.296Z,14.40
2024-02-22T04:26:28.612Z,13.85
2024-02-22T04:28:56.436Z,14.90
2024-02-22T04:31:24.261Z,12.35
2024-02-22T04:33:52.353Z,16.35
2024-02-22T04:36:20.811Z,14.05
2024-02-22T04:38:49.378Z,13.40
2024-02-22T04:41:22.185Z,13.35
2024-02-22T04:43:51.926Z,13.45
2024-02-22T04:46:20.607Z,13.02
2024-02-22T04:48:48.947Z,13.43
2024-02-22T04:51:17.141Z,13.27
2024-02-22T04:53:45.052Z,13.88
2024-02-22T04:56:14.501Z,12.60
2024-02-22T04:58:42.845Z,12.75
2024-02-22T05:01:13.256Z,14.63
2024-02-22T05:03:41.924Z,15.63
2024-02-22T05:06:11.629Z,11.90
2024-02-22T05:08:40.089Z,12.60
2024-02-22T05:11:08.379Z,12.00
2024-02-22T05:13:36.431Z,12.45
2024-02-22T05:16:06.908Z,11.82
2024-02-22T05:18:37.084Z,13.02
2024-02-22T05:21:05.114Z,13.15
2024-02-22T05:23:32.909Z,10.25
2024-02-22T05:26:04.221Z,10.15
2024-02-22T05:28:32.183Z,9.82
2024-02-22T05:31:00.473Z,7.68
2024-02-22T05:33:30.308Z,9.05
2024-02-22T05:35:59.928Z,7.55
2024-02-22T05:38:27.676Z,8.77
2024-02-22T05:40:55.605Z,8.30
2024-02-22T05:43:25.487Z,7.80
2024-02-22T05:45:55.350Z,6.80
2024-02-22T05:48:24.662Z,6.55
2024-02-22T05:50:53.289Z,5.97
2024-02-22T05:53:23.675Z,7.47
2024-02-22T05:55:52.971Z,6.80
2024-02-22T05:58:21.601Z,5.70
2024-02-22T06:00:50.759Z,6.82
2024-02-22T06:03:19.087Z,6.85
2024-02-22T06:05:47.271Z,6.38
2024-02-22T06:08:15.073Z,6.18
2024-02-22T06:10:44.870Z,7.75
2024-02-22T06:13:12.828Z,6.80
2024-02-22T06:15:40.665Z,6.72
2024-02-22T06:18:10.201Z,7.00
2024-02-22T06:20:39.307Z,7.60
2024-02-22T06:23:07.652Z,7.35
2024-02-22T06:25:37.059Z,10.73
2024-02-22T06:28:07.514Z,9.60
2024-02-22T06:30:36.313Z,10.80
2024-02-22T06:33:04.096Z,12.18
2024-02-22T06:35:32.824Z,15.80
2024-02-22T06:38:01.796Z,15.73
2024-02-22T06:40:29.774Z,15.57
2024-02-22T06:43:00.084Z,15.18
2024-02-22T06:45:29.243Z,15.23
2024-02-22T06:47:58.946Z,17.60
2024-02-22T06:50:27.254Z,16.97
2024-02-22T06:52:55.012Z,18.13
2024-02-22T06:55:26.133Z,17.88
2024-02-22T06:57:54.800Z,20.13
2024-02-22T07:00:24.054Z,17.83
2024-02-22T07:02:54.800Z,18.50
2024-02-22T07:05:23.225Z,17.95
2024-02-22T07:07:51.470Z,21.05
2024-02-22T07:10:19.522Z,16.67
2024-02-22T07:12:48.001Z,17.95
2024-02-22T07:15:17.786Z,20.13
2024-02-22T07:17:47.346Z,18.92
2024-02-22T07:20:16.951Z,17.30
2024-02-22T07:22:48.096Z,17.27
2024-02-22T07:25:17.941Z,15.45
2024-02-22T07:27:46.089Z,17.15
2024-02-22T07:30:14.998Z,15.15
2024-02-22T07:32:42.848Z,14.82
2024-02-22T07:35:12.310Z,14.48
2024-02-22T07:37:43.192Z,14.15
2024-02-22T07:40:11.758Z,14.52
2024-02-22T07:42:41.758Z,14.02
2024-02-22T07:45:11.580Z,14.50
2024-02-22T07:47:40.562Z,14.67
2024-02-22T07:50:12.433Z,16.65
2024-02-22T07:52:42.633Z,15.30
2024-02-22T07:55:11.559Z,16.58
2024-02-22T07:57:41.871Z,15.15
2024-02-22T08:00:10.455Z,17.35
2024-02-22T08:02:38.515Z,15.30
2024-02-22T08:05:11.379Z,15.63
2024-02-22T08:07:40.006Z,16.67
2024-02-22T08:10:11.003Z,14.60
2024-02-22T08:12:39.019Z,14.63
2024-02-22T08:15:09.243Z,14.90
2024-02-22T08:17:39.819Z,15.15
2024-02-22T08:22:37.443Z,12.18
2024-02-22T08:25:06.964Z,20.17
2024-02-22T08:27:46.410Z,11.60
2024-02-22T08:30:30.746Z,13.45
2024-02-22T08:32:59.771Z,13.13
2024-02-22T08:35:27.771Z,12.70
2024-02-22T08:37:56.280Z,11.27
2024-02-22T08:40:34.917Z,12.18
2024-02-22T08:43:09.361Z,10.57
2024-02-22T08:48:05.955Z,11.05
2024-02-22T08:50:34.521Z,11.18
2024-02-22T08:53:05.853Z,12.77
2024-02-22T08:55:39.524Z,9.27
2024-02-22T08:58:09.680Z,9.00
2024-02-22T09:00:39.723Z,10.77
2024-02-22T09:03:13.022Z,9.45
2024-02-22T09:05:42.599Z,12.98
2024-02-22T09:08:14.762Z,12.50
2024-02-22T09:10:43.794Z,9.88
2024-02-22T09:13:13.345Z,11.63
2024-02-22T09:15:41.969Z,11.43
2024-02-22T09:18:10.143Z,9.10
2024-02-22T09:20:38.912Z,9.05
2024-02-22T09:23:07.416Z,8.82
2024-02-22T09:25:36.214Z,10.82
2024-02-22T09:28:04.600Z,8.02
2024-02-22T09:30:42.973Z,7.97
2024-02-22T09:33:16.074Z,8.55
2024-02-22T09:35:47.405Z,7.13
2024-02-22T09:38:15.900Z,7.80
2024-02-22T09:40:44.275Z,8.02
2024-02-22T09:43:12.131Z,9.43
2024-02-22T09:45:42.038Z,8.85
2024-02-22T09:48:11.849Z,8.07
2024-02-22T09:50:39.972Z,8.93
2024-02-22T09:53:08.511Z,10.57
2024-02-22T09:55:37.466Z,6.25
2024-02-22T09:58:06.058Z,8.75
2024-02-22T10:00:35.170Z,8.60
2024-02-22T10:03:04.859Z,7.03
2024-02-22T10:05:42.278Z,6.37
2024-02-22T10:08:12.092Z,7.57
2024-02-22T10:10:46.672Z,5.10
2024-02-22T10:13:22.161Z,5.90
2024-02-22T10:18:48.180Z,4.57
2024-02-22T10:21:18.772Z,5.55
2024-02-22T10:23:47.964Z,5.13
2024-02-22T10:26:16.592Z,5.85
2024-02-22T10:28:44.845Z,6.03
2024-02-22T10:31:13.966Z,6.63
2024-02-22T10:33:42.215Z,5.43
2024-02-22T10:36:11.769Z,5.90
2024-02-22T10:38:40.625Z,7.30
2024-02-22T10:41:11.898Z,7.07
2024-02-22T10:43:42.724Z,6.00
2024-02-22T10:46:13.715Z,6.75
2024-02-22T10:48:52.946Z,7.07
2024-02-22T10:51:24.309Z,11.07
2024-02-22T10:53:56.320Z,7.07
2024-02-22T10:56:26.125Z,6.53
2024-02-22T10:59:10.875Z,7.55
2024-02-22T11:01:39.992Z,5.90
2024-02-22T11:04:09.076Z,6.20
2024-02-22T11:06:42.491Z,6.63
2024-02-22T11:09:19.310Z,9.77
2024-02-22T11:11:49.912Z,8.23
2024-02-22T11:14:36.383Z,7.20
2024-02-22T11:17:16.739Z,6.38
2024-02-22T11:19:56.550Z,5.97
2024-02-22T11:22:34.986Z,6.03
2024-02-22T11:25:08.769Z,5.60
2024-02-22T11:27:37.962Z,6.13
2024-02-22T11:30:18.892Z,6.30
2024-02-22T11:32:56.612Z,6.85
2024-02-22T11:35:26.723Z,7.57
2024-02-22T11:38:01.011Z,11.98
2024-02-22T11:40:38.315Z,6.57
2024-02-22T11:43:06.637Z,5.88
2024-02-22T11:45:40.028Z,5.90
2024-02-22T11:48:09.975Z,5.72
2024-02-22T11:50:38.518Z,5.82
2024-02-22T11:53:09.156Z,7.18
2024-02-22T11:58:04.781Z,5.53
2024-02-22T12:00:33.313Z,8.90
2024-02-22T12:03:01.547Z,5.97
2024-02-22T12:05:31.454Z,6.10
2024-02-22T12:07:59.847Z,6.85
2024-02-22T12:10:29.593Z,4.55
2024-02-22T12:12:57.773Z,6.00
2024-02-22T12:15:28.027Z,6.43
2024-02-22T12:20:28.102Z,3.40
2024-02-22T12:22:56.646Z,3.90
2024-02-22T12:25:25.564Z,3.97
2024-02-22T12:27:56.659Z,5.95
2024-02-22T12:30:27.248Z,4.30
2024-02-22T12:35:24.244Z,2.40
2024-02-22T12:37:52.489Z,1.50
2024-02-22T12:40:20.332Z,2.08
2024-02-22T12:42:56.376Z,2.75
2024-02-22T12:45:28.837Z,3.75
2024-02-22T12:47:56.837Z,5.68
2024-02-22T12:50:25.066Z,4.38
2024-02-22T12:52:52.825Z,3.63
2024-02-22T12:55:21.349Z,2.70
2024-02-22T12:57:49.472Z,2.50
2024-02-22T13:00:19.853Z,2.80
2024-02-22T13:02:52.938Z,2.67
2024-02-22T13:05:21.127Z,3.58
2024-02-22T13:07:50.978Z,5.07
2024-02-22T13:10:19.163Z,3.85
2024-02-22T13:12:46.961Z,3.50
2024-02-22T13:15:14.544Z,4.00
2024-02-22T13:17:46.845Z,4.38
2024-02-22T13:20:20.208Z,3.15
2024-02-22T13:22:48.239Z,4.13
2024-02-22T13:25:19.860Z,3.88
2024-02-22T13:27:47.477Z,3.30
2024-02-22T13:30:17.520Z,2.13
2024-02-22T13:32:51.990Z,1.98
2024-02-22T13:35:19.950Z,2.40
2024-02-22T13:37:48.200Z,4.65
2024-02-22T13:42:46.749Z,1.75
2024-02-22T13:45:18.029Z,3.83
2024-02-22T13:47:47.977Z,2.50
2024-02-22T13:50:17.941Z,4.47
2024-02-22T13:52:46.532Z,7.97
2024-02-22T13:55:14.750Z,3.35
2024-02-22T13:57:43.856Z,3.40
2024-02-22T14:00:14.480Z,2.67
2024-02-22T14:02:42.349Z,3.63
2024-02-22T14:05:12.209Z,4.70
2024-02-22T14:07:42.830Z,5.00
2024-02-22T14:12:39.245Z,5.40
2024-02-22T14:15:08.313Z,3.60
2024-02-22T14:17:36.797Z,4.45
2024-02-22T14:20:06.044Z,4.28
2024-02-22T14:22:35.173Z,4.00
2024-02-22T14:25:02.901Z,3.17
2024-02-22T14:27:33.073Z,4.90
2024-02-22T14:30:01.178Z,3.92
2024-02-22T14:32:29.210Z,4.40
2024-02-22T14:34:57.356Z,2.75
2024-02-22T14:37:25.519Z,3.10
2024-02-22T14:39:54.570Z,2.60
2024-02-22T14:42:24.619Z,3.20
2024-02-22T14:44:52.777Z,3.42
2024-02-22T14:47:23.262Z,3.33
2024-02-22T14:49:51.775Z,2.50
2024-02-22T14:52:19.769Z,3.92
2024-02-22T14:54:47.898Z,3.55
2024-02-22T14:57:17.540Z,4.22
2024-02-22T14:59:45.670Z,3.58
2024-02-22T15:02:13.840Z,3.38
2024-02-22T15:04:42.411Z,3.15
2024-02-22T15:07:10.425Z,4.60
2024-02-22T15:09:38.745Z,4.03
2024-02-22T15:12:08.182Z,4.47
2024-02-22T15:14:39.236Z,4.43
2024-02-22T15:17:07.839Z,3.63
2024-02-22T15:19:36.514Z,3.90
2024-02-22T15:22:06.310Z,3.00
2024-02-22T15:24:35.058Z,4.72
2024-02-22T15:27:04.997Z,3.45
2024-02-22T15:29:34.148Z,5.63
2024-02-22T15:32:05.925Z,5.82
2024-02-22T15:34:35.294Z,4.97
2024-02-22T15:37:03.297Z,3.80
2024-02-22T15:39:31.171Z,3.25
2024-02-22T15:41:59.670Z,3.55
2024-02-22T15:44:27.521Z,3.40
2024-02-22T15:46:55.316Z,4.20
2024-02-22T15:49:24.500Z,5.22
2024-02-22T15:51:54.430Z,2.83
2024-02-22T15:54:22.599Z,2.55
2024-02-22T15:56:51.293Z,3.25
2024-02-22T15:59:19.325Z,3.08
2024-02-22T16:01:47.294Z,2.60
2024-02-22T16:04:15.143Z,2.95
2024-02-22T16:06:44.802Z,4.10
2024-02-22T16:09:13.007Z,3.10
2024-02-22T16:11:40.792Z,2.42
2024-02-22T16:14:08.571Z,6.93
2024-02-22T16:16:36.541Z,4.22
2024-02-22T16:19:07.993Z,4.30
2024-02-22T16:21:37.933Z,3.90
2024-02-22T16:24:08.489Z,4.03
2024-02-22T16:26:38.428Z,3.95
2024-02-22T16:29:06.570Z,4.65
2024-02-22T16:31:34.458Z,4.45
2024-02-22T16:34:02.271Z,5.45
2024-02-22T16:36:30.025Z,5.32
2024-02-22T16:39:02.862Z,4.82
2024-02-22T16:41:37.990Z,4.60
2024-02-22T16:44:09.222Z,6.55
2024-02-22T16:46:41.893Z,4.00
2024-02-22T16:49:10.350Z,5.30
2024-02-22T16:51:38.544Z,7.60
2024-02-22T16:54:06.528Z,5.57
2024-02-22T16:56:34.897Z,4.53
2024-02-22T16:59:05.274Z,3.83
2024-02-22T17:01:33.436Z,4.88
2024-02-22T17:04:02.888Z,7.18
2024-02-22T17:06:32.745Z,4.95
2024-02-22T17:09:01.112Z,6.57
2024-02-22T17:11:29.776Z,6.93
2024-02-22T17:13:57.990Z,5.07
2024-02-22T17:16:27.150Z,5.72
2024-02-22T17:18:55.256Z,8.63
2024-02-22T17:21:24.982Z,5.68
2024-02-22T17:23:52.849Z,6.07
2024-02-22T17:26:21.186Z,7.20
2024-02-22T17:28:50.887Z,5.18
2024-02-22T17:31:18.651Z,7.18
2024-02-22T17:33:48.814Z,6.00
2024-02-22T17:36:17.184Z,5.43
2024-02-22T17:38:45.126Z,6.65
2024-02-22T17:41:13.303Z,8.77
2024-02-22T17:43:41.216Z,6.60
2024-02-22T17:46:09.727Z,8.02
2024-02-22T17:48:39.533Z,7.07
2024-02-22T17:51:09.731Z,5.47
2024-02-22T17:53:40.763Z,6.20
2024-02-22T17:56:09.234Z,7.18
2024-02-22T17:58:47.811Z,6.45
2024-02-22T18:01:23.572Z,7.30
2024-02-22T18:03:51.737Z,5.15
2024-02-22T18:06:21.977Z,6.78
2024-02-22T18:08:50.130Z,5.80
2024-02-22T18:11:20.203Z,4.18
2024-02-22T18:13:48.510Z,4.55
2024-02-22T18:16:16.809Z,6.50
2024-02-22T18:18:46.233Z,5.82
2024-02-22T18:21:14.387Z,5.00
2024-02-22T18:23:46.352Z,5.10
2024-02-22T18:26:15.514Z,4.88
2024-02-22T18:28:44.978Z,4.95
2024-02-22T18:31:13.450Z,5.45
2024-02-22T18:33:41.265Z,5.80
2024-02-22T18:36:10.700Z,5.15
2024-02-22T18:38:42.569Z,4.60
2024-02-22T18:41:14.430Z,5.72
2024-02-22T18:43:43.493Z,15.18
2024-02-22T18:46:11.376Z,5.20
2024-02-22T18:48:40.940Z,5.20
2024-02-22T18:51:10.179Z,3.47
2024-02-22T18:53:38.968Z,4.32
2024-02-22T18:56:07.149Z,5.28
2024-02-22T18:58:36.743Z,4.95
2024-02-22T19:01:05.581Z,5.75
2024-02-22T19:03:37.439Z,3.85
2024-02-22T19:06:05.953Z,4.07
2024-02-22T19:08:33.849Z,4.85
2024-02-22T19:11:06.406Z,4.95
2024-02-22T19:13:35.533Z,5.70
2024-02-22T19:16:05.033Z,4.82
2024-02-22T19:18:32.950Z,4.38
2024-02-22T19:21:00.858Z,5.10
2024-02-22T19:23:28.881Z,4.88
2024-02-22T19:25:56.999Z,4.85
2024-02-22T19:28:26.111Z,5.53
2024-02-22T19:30:53.914Z,5.32
2024-02-22T19:33:23.126Z,4.60
2024-02-22T19:35:51.345Z,5.35
2024-02-22T19:38:21.910Z,5.75
2024-02-22T19:40:52.163Z,4.10
2024-02-22T19:43:21.200Z,3.70
2024-02-22T19:45:49.374Z,3.70
2024-02-22T19:48:17.669Z,5.18
2024-02-22T19:50:47.180Z,4.47
2024-02-22T19:53:15.083Z,4.15
2024-02-22T19:55:44.382Z,4.32
2024-02-22T19:58:12.817Z,4.45
2024-02-22T20:00:40.609Z,5.78
2024-02-22T20:03:10.199Z,5.93
2024-02-22T20:05:38.439Z,3.97
2024-02-22T20:08:08.670Z,5.50
2024-02-22T20:10:36.600Z,4.32
2024-02-22T20:13:04.509Z,4.63
2024-02-22T20:15:32.506Z,4.43
2024-02-22T20:18:01.381Z,3.55
2024-02-22T20:20:30.078Z,4.18
2024-02-22T20:22:58.210Z,3.28
2024-02-22T20:25:27.751Z,3.80
2024-02-22T20:27:58.257Z,2.60
2024-02-22T20:30:26.220Z,2.53
2024-02-22T20:32:54.297Z,2.40
2024-02-22T20:35:25.908Z,2.67
2024-02-22T20:37:55.117Z,4.25
2024-02-22T20:40:23.501Z,2.33
2024-02-22T20:42:53.411Z,1.55
2024-02-22T20:45:22.004Z,3.65
2024-02-22T20:47:49.867Z,2.00
2024-02-22T20:50:21.639Z,2.30
2024-02-22T20:52:49.933Z,5.07
2024-02-22T20:55:17.700Z,2.17
2024-02-22T20:57:45.986Z,1.42
2024-02-22T21:00:18.076Z,1.65
2024-02-22T21:02:46.124Z,1.55
2024-02-22T21:05:14.061Z,0.82
2024-02-22T21:07:44.043Z,1.30
2024-02-22T21:10:12.710Z,0.88
2024-02-22T21:12:40.948Z,1.85
2024-02-22T21:15:11.373Z,2.75
2024-02-22T21:17:41.644Z,1.23
2024-02-22T21:20:12.022Z,0.90
2024-02-22T21:22:40.970Z,2.30
2024-02-22T21:25:09.418Z,2.30
2024-02-22T21:27:40.705Z,4.20
2024-02-22T21:30:11.321Z,4.55
2024-02-22T21:32:41.732Z,1.40
2024-02-22T21:35:10.529Z,1.27
2024-02-22T21:37:42.136Z,1.35
2024-02-22T21:40:11.362Z,0.55
2024-02-22T21:42:39.181Z,1.67
2024-02-22T21:45:07.783Z,1.05
2024-02-22T21:47:37.065Z,0.57
2024-02-22T21:50:09.893Z,0.45
2024-02-22T21:52:38.700Z,0.40
2024-02-22T21:55:10.041Z,2.05
2024-02-22T21:57:38.752Z,1.88
2024-02-22T22:00:11.044Z,0.50
2024-02-22T22:02:43.047Z,1.20
2024-02-22T22:05:12.453Z,0.50
2024-02-22T22:07:41.338Z,0.25
2024-02-22T22:10:10.185Z,0.25
2024-02-22T22:12:40.287Z,1.70
2024-02-22T22:15:10.138Z,0.80
2024-02-22T22:17:39.875Z,0.35
2024-02-22T22:20:09.229Z,2.03
2024-02-22T22:22:38.744Z,1.90
2024-02-22T22:27:35.948Z,1.55
2024-02-22T22:30:04.278Z,2.83
2024-02-22T22:32:34.094Z,0.63
2024-02-22T22:35:02.549Z,1.50
2024-02-22T22:37:30.527Z,2.35
2024-02-22T22:39:59.599Z,0.73
2024-02-22T22:42:27.416Z,1.80
2024-02-22T22:44:58.058Z,0.10
2024-02-22T22:49:54.444Z,2.00
2024-02-22T22:52:22.374Z,0.70
2024-02-22T22:54:51.053Z,0.98
2024-02-22T22:57:23.387Z,3.22
2024-02-22T22:59:53.217Z,0.93
2024-02-22T23:02:21.957Z,1.27
2024-02-22T23:04:53.625Z,3.00
2024-02-22T23:07:26.348Z,1.23
2024-02-22T23:09:56.809Z,1.85
2024-02-22T23:12:28.491Z,1.27
2024-02-22T23:14:57.398Z,3.13
2024-02-22T23:17:25.460Z,1.45
2024-02-22T23:19:54.584Z,1.70
2024-02-22T23:22:28.837Z,0.60
2024-02-22T23:24:59.273Z,1.15
2024-02-22T23:27:29.386Z,3.25
2024-02-22T23:29:58.211Z,1.87
2024-02-22T23:32:26.531Z,1.45
2024-02-22T23:34:56.611Z,2.78
2024-02-22T23:37:24.744Z,1.17
2024-02-22T23:39:53.857Z,1.10
2024-02-22T23:42:21.676Z,2.92
2024-02-22T23:44:52.518Z,3.58
2024-02-22T23:47:22.067Z,1.20
2024-02-22T23:49:50.326Z,2.05
2024-02-22T23:52:18.096Z,1.25
2024-02-22T23:54:46.871Z,3.05
2024-02-22T23:57:14.800Z,0.52
2024-02-22T23:59:44.300Z,1.85
